sensor_id;sensor_type;location;lat;lon;timestamp;P1;durP1;ratioP1;P2;durP2;ratioP2
41546;SDS011;27271;45.412;10.852;2023-04-01T00:00:36;2.55;;;2.28;;
41546;SDS011;27271;45.412;10.852;2023-04-01T00:04:03;2.55;;;2.35;;
41546;SDS011;27271;45.412;10.852;2023-04-01T00:07:26;4.40;;;2.35;;
41546;SDS011;27271;45.412;10.852;2023-04-01T00:10:51;5.40;;;3.47;;
41546;SDS011;27271;45.412;10.852;2023-04-01T00:14:14;5.03;;;3.33;;
41546;SDS011;27271;45.412;10.852;2023-04-01T00:17:36;6.45;;;3.67;;
41546;SDS011;27271;45.412;10.852;2023-04-01T00:20:59;3.22;;;2.97;;
41546;SDS011;27271;45.412;10.852;2023-04-01T00:24:21;3.30;;;3.00;;
41546;SDS011;27271;45.412;10.852;2023-04-01T00:27:45;2.17;;;1.73;;
41546;SDS011;27271;45.412;10.852;2023-04-01T00:31:08;2.85;;;2.33;;
41546;SDS011;27271;45.412;10.852;2023-04-01T00:34:31;6.63;;;3.58;;
41546;SDS011;27271;45.412;10.852;2023-04-01T00:37:54;4.82;;;2.95;;
41546;SDS011;27271;45.412;10.852;2023-04-01T00:41:18;2.72;;;2.40;;
41546;SDS011;27271;45.412;10.852;2023-04-01T00:44:44;6.10;;;3.10;;
41546;SDS011;27271;45.412;10.852;2023-04-01T00:48:11;3.58;;;2.63;;
41546;SDS011;27271;45.412;10.852;2023-04-01T00:51:35;1.88;;;1.30;;
41546;SDS011;27271;45.412;10.852;2023-04-01T00:55:00;4.15;;;2.97;;
41546;SDS011;27271;45.412;10.852;2023-04-01T00:58:27;3.88;;;3.60;;
41546;SDS011;27271;45.412;10.852;2023-04-01T01:01:53;2.30;;;2.20;;
41546;SDS011;27271;45.412;10.852;2023-04-01T01:05:15;6.75;;;3.92;;
41546;SDS011;27271;45.412;10.852;2023-04-01T01:08:47;2.75;;;2.28;;
41546;SDS011;27271;45.412;10.852;2023-04-01T01:12:22;2.80;;;1.90;;
41546;SDS011;27271;45.412;10.852;2023-04-01T01:16:09;7.43;;;3.35;;
41546;SDS011;27271;45.412;10.852;2023-04-01T01:20:15;3.28;;;2.08;;
41546;SDS011;27271;45.412;10.852;2023-04-01T01:27:27;6.80;;;3.97;;
41546;SDS011;27271;45.412;10.852;2023-04-01T01:31:40;4.20;;;2.63;;
41546;SDS011;27271;45.412;10.852;2023-04-01T01:38:41;2.67;;;2.40;;
41546;SDS011;27271;45.412;10.852;2023-04-01T01:42:04;4.80;;;3.80;;
41546;SDS011;27271;45.412;10.852;2023-04-01T01:45:32;2.80;;;2.60;;
41546;SDS011;27271;45.412;10.852;2023-04-01T01:48:59;5.80;;;4.43;;
41546;SDS011;27271;45.412;10.852;2023-04-01T01:52:24;1.83;;;1.73;;
41546;SDS011;27271;45.412;10.852;2023-04-01T01:55:50;7.22;;;4.28;;
41546;SDS011;27271;45.412;10.852;2023-04-01T01:59:13;1.17;;;0.93;;
41546;SDS011;27271;45.412;10.852;2023-04-01T02:02:41;1.52;;;1.40;;
41546;SDS011;27271;45.412;10.852;2023-04-01T02:06:08;0.90;;;0.73;;
41546;SDS011;27271;45.412;10.852;2023-04-01T02:09:37;4.20;;;2.72;;
41546;SDS011;27271;45.412;10.852;2023-04-01T02:13:02;2.88;;;2.22;;
41546;SDS011;27271;45.412;10.852;2023-04-01T02:16:34;2.50;;;2.10;;
41546;SDS011;27271;45.412;10.852;2023-04-01T02:20:13;2.47;;;2.28;;
41546;SDS011;27271;45.412;10.852;2023-04-01T02:23:38;2.53;;;2.10;;
41546;SDS011;27271;45.412;10.852;2023-04-01T02:27:01;2.30;;;2.15;;
41546;SDS011;27271;45.412;10.852;2023-04-01T02:30:25;3.72;;;2.10;;
41546;SDS011;27271;45.412;10.852;2023-04-01T02:33:54;3.95;;;2.78;;
41546;SDS011;27271;45.412;10.852;2023-04-01T02:37:16;7.40;;;5.05;;
41546;SDS011;27271;45.412;10.852;2023-04-01T02:40:44;7.03;;;4.00;;
41546;SDS011;27271;45.412;10.852;2023-04-01T02:44:12;6.97;;;3.90;;
41546;SDS011;27271;45.412;10.852;2023-04-01T02:47:37;3.28;;;2.28;;
41546;SDS011;27271;45.412;10.852;2023-04-01T02:51:01;5.05;;;4.15;;
41546;SDS011;27271;45.412;10.852;2023-04-01T02:54:23;1.77;;;1.67;;
41546;SDS011;27271;45.412;10.852;2023-04-01T02:57:45;4.85;;;3.95;;
41546;SDS011;27271;45.412;10.852;2023-04-01T03:01:07;3.50;;;2.38;;
41546;SDS011;27271;45.412;10.852;2023-04-01T03:04:30;7.72;;;4.32;;
41546;SDS011;27271;45.412;10.852;2023-04-01T03:07:52;1.52;;;1.42;;
41546;SDS011;27271;45.412;10.852;2023-04-01T03:11:17;5.90;;;3.38;;
41546;SDS011;27271;45.412;10.852;2023-04-01T03:14:43;3.53;;;3.22;;
41546;SDS011;27271;45.412;10.852;2023-04-01T03:18:06;2.67;;;1.88;;
41546;SDS011;27271;45.412;10.852;2023-04-01T03:21:28;5.22;;;4.32;;
41546;SDS011;27271;45.412;10.852;2023-04-01T03:24:51;4.38;;;2.72;;
41546;SDS011;27271;45.412;10.852;2023-04-01T03:28:13;4.55;;;4.05;;
41546;SDS011;27271;45.412;10.852;2023-04-01T03:31:36;8.35;;;3.08;;
41546;SDS011;27271;45.412;10.852;2023-04-01T03:34:59;8.90;;;3.70;;
41546;SDS011;27271;45.412;10.852;2023-04-01T03:38:26;6.72;;;3.45;;
41546;SDS011;27271;45.412;10.852;2023-04-01T03:41:48;5.28;;;4.32;;
41546;SDS011;27271;45.412;10.852;2023-04-01T03:45:11;4.35;;;3.58;;
41546;SDS011;27271;45.412;10.852;2023-04-01T03:48:33;3.25;;;2.97;;
41546;SDS011;27271;45.412;10.852;2023-04-01T03:51:59;3.28;;;2.15;;
41546;SDS011;27271;45.412;10.852;2023-04-01T03:55:25;3.80;;;1.95;;
41546;SDS011;27271;45.412;10.852;2023-04-01T03:58:47;6.85;;;2.97;;
41546;SDS011;27271;45.412;10.852;2023-04-01T04:02:11;8.63;;;3.45;;
41546;SDS011;27271;45.412;10.852;2023-04-01T04:05:33;2.33;;;2.17;;
41546;SDS011;27271;45.412;10.852;2023-04-01T04:08:57;4.32;;;2.95;;
41546;SDS011;27271;45.412;10.852;2023-04-01T04:12:20;7.47;;;3.63;;
41546;SDS011;27271;45.412;10.852;2023-04-01T04:15:44;11.70;;;3.38;;
41546;SDS011;27271;45.412;10.852;2023-04-01T04:19:07;5.07;;;2.70;;
41546;SDS011;27271;45.412;10.852;2023-04-01T04:22:29;3.08;;;2.60;;
41546;SDS011;27271;45.412;10.852;2023-04-01T04:25:59;3.17;;;2.88;;
41546;SDS011;27271;45.412;10.852;2023-04-01T04:29:23;3.40;;;3.13;;
41546;SDS011;27271;45.412;10.852;2023-04-01T04:32:46;3.85;;;3.53;;
41546;SDS011;27271;45.412;10.852;2023-04-01T04:36:08;2.13;;;2.03;;
41546;SDS011;27271;45.412;10.852;2023-04-01T04:39:31;3.80;;;3.58;;
41546;SDS011;27271;45.412;10.852;2023-04-01T04:42:57;4.80;;;2.85;;
41546;SDS011;27271;45.412;10.852;2023-04-01T04:46:21;3.35;;;2.85;;
41546;SDS011;27271;45.412;10.852;2023-04-01T04:49:50;5.57;;;2.67;;
41546;SDS011;27271;45.412;10.852;2023-04-01T04:53:12;1.85;;;1.75;;
41546;SDS011;27271;45.412;10.852;2023-04-01T04:56:36;11.88;;;3.55;;
41546;SDS011;27271;45.412;10.852;2023-04-01T05:00:00;1.52;;;1.42;;
41546;SDS011;27271;45.412;10.852;2023-04-01T05:03:41;4.18;;;3.50;;
41546;SDS011;27271;45.412;10.852;2023-04-01T05:07:03;8.27;;;3.50;;
41546;SDS011;27271;45.412;10.852;2023-04-01T05:10:26;4.13;;;3.72;;
41546;SDS011;27271;45.412;10.852;2023-04-01T05:13:48;2.60;;;2.42;;
41546;SDS011;27271;45.412;10.852;2023-04-01T05:17:14;5.82;;;4.05;;
41546;SDS011;27271;45.412;10.852;2023-04-01T05:20:36;3.67;;;3.38;;
41546;SDS011;27271;45.412;10.852;2023-04-01T05:23:59;3.80;;;3.28;;
41546;SDS011;27271;45.412;10.852;2023-04-01T05:27:23;4.60;;;3.65;;
41546;SDS011;27271;45.412;10.852;2023-04-01T05:30:46;2.72;;;2.53;;
41546;SDS011;27271;45.412;10.852;2023-04-01T05:34:18;2.70;;;2.08;;
41546;SDS011;27271;45.412;10.852;2023-04-01T05:37:41;2.72;;;2.53;;
41546;SDS011;27271;45.412;10.852;2023-04-01T05:41:04;1.65;;;1.55;;
41546;SDS011;27271;45.412;10.852;2023-04-01T05:44:31;2.17;;;1.75;;
41546;SDS011;27271;45.412;10.852;2023-04-01T05:48:01;3.38;;;1.60;;
41546;SDS011;27271;45.412;10.852;2023-04-01T05:51:28;2.22;;;2.08;;
41546;SDS011;27271;45.412;10.852;2023-04-01T05:54:51;1.63;;;1.42;;
41546;SDS011;27271;45.412;10.852;2023-04-01T05:58:16;8.85;;;3.55;;
41546;SDS011;27271;45.412;10.852;2023-04-01T06:01:42;5.38;;;3.83;;
41546;SDS011;27271;45.412;10.852;2023-04-01T06:05:25;5.90;;;4.82;;
41546;SDS011;27271;45.412;10.852;2023-04-01T06:08:55;3.45;;;3.15;;
41546;SDS011;27271;45.412;10.852;2023-04-01T06:32:15;4.80;;;3.75;;
41546;SDS011;27271;45.412;10.852;2023-04-01T06:49:07;6.78;;;4.63;;
41546;SDS011;27271;45.412;10.852;2023-04-01T06:52:43;5.25;;;3.97;;
41546;SDS011;27271;45.412;10.852;2023-04-01T06:57:09;3.58;;;2.90;;
41546;SDS011;27271;45.412;10.852;2023-04-01T07:00:43;4.57;;;3.17;;
41546;SDS011;27271;45.412;10.852;2023-04-01T07:04:15;2.38;;;1.98;;
41546;SDS011;27271;45.412;10.852;2023-04-01T07:07:53;2.83;;;1.60;;
41546;SDS011;27271;45.412;10.852;2023-04-01T07:11:27;1.42;;;1.23;;
41546;SDS011;27271;45.412;10.852;2023-04-01T07:15:28;2.10;;;1.58;;
41546;SDS011;27271;45.412;10.852;2023-04-01T07:22:56;2.08;;;0.85;;
41546;SDS011;27271;45.412;10.852;2023-04-01T07:26:52;1.35;;;1.00;;
41546;SDS011;27271;45.412;10.852;2023-04-01T07:38:42;0.90;;;0.83;;
41546;SDS011;27271;45.412;10.852;2023-04-01T07:57:19;1.35;;;1.25;;
41546;SDS011;27271;45.412;10.852;2023-04-01T08:08:18;0.93;;;0.90;;
41546;SDS011;27271;45.412;10.852;2023-04-01T08:12:43;1.23;;;1.13;;
41546;SDS011;27271;45.412;10.852;2023-04-01T08:17:02;1.00;;;0.93;;
41546;SDS011;27271;45.412;10.852;2023-04-01T08:24:11;1.60;;;1.05;;
41546;SDS011;27271;45.412;10.852;2023-04-01T08:28:19;1.60;;;0.98;;
41546;SDS011;27271;45.412;10.852;2023-04-01T08:32:11;0.90;;;0.90;;
41546;SDS011;27271;45.412;10.852;2023-04-01T08:39:29;4.93;;;2.05;;
41546;SDS011;27271;45.412;10.852;2023-04-01T09:01:58;0.57;;;0.57;;
41546;SDS011;27271;45.412;10.852;2023-04-01T09:13:13;1.33;;;1.15;;
41546;SDS011;27271;45.412;10.852;2023-04-01T09:20:30;12.30;;;1.45;;
41546;SDS011;27271;45.412;10.852;2023-04-01T09:28:13;0.30;;;0.28;;
41546;SDS011;27271;45.412;10.852;2023-04-01T09:31:54;0.40;;;0.40;;
41546;SDS011;27271;45.412;10.852;2023-04-01T09:36:01;0.85;;;0.30;;
41546;SDS011;27271;45.412;10.852;2023-04-01T09:39:38;0.68;;;0.35;;
41546;SDS011;27271;45.412;10.852;2023-04-01T09:47:21;2.55;;;0.77;;
41546;SDS011;27271;45.412;10.852;2023-04-01T10:10:41;0.35;;;0.35;;
41546;SDS011;27271;45.412;10.852;2023-04-01T10:22:05;0.73;;;0.57;;
41546;SDS011;27271;45.412;10.852;2023-04-01T10:41:35;2.53;;;0.90;;
41546;SDS011;27271;45.412;10.852;2023-04-01T11:06:13;0.65;;;0.65;;
41546;SDS011;27271;45.412;10.852;2023-04-01T11:21:58;0.60;;;0.47;;
41546;SDS011;27271;45.412;10.852;2023-04-01T11:30:09;0.52;;;0.40;;
41546;SDS011;27271;45.412;10.852;2023-04-01T11:41:55;0.95;;;0.25;;
41546;SDS011;27271;45.412;10.852;2023-04-01T11:58:20;0.30;;;0.30;;
41546;SDS011;27271;45.412;10.852;2023-04-01T12:01:30;0.82;;;0.65;;
41546;SDS011;27271;45.412;10.852;2023-04-01T13:15:48;1.33;;;0.57;;
41546;SDS011;27271;45.412;10.852;2023-04-01T13:19:33;0.38;;;0.38;;
41546;SDS011;27271;45.412;10.852;2023-04-01T13:23:34;0.00;;;0.00;;
41546;SDS011;27271;45.412;10.852;2023-04-01T13:31:23;0.15;;;0.15;;
41546;SDS011;27271;45.412;10.852;2023-04-01T13:57:14;0.30;;;0.30;;
41546;SDS011;27271;45.412;10.852;2023-04-01T14:04:41;0.30;;;0.30;;
41546;SDS011;27271;45.412;10.852;2023-04-01T14:08:17;0.40;;;0.30;;
